Asbury Park, NJ

10:01 AM EST on November 24, 2014 (GMT -0500)
Cedar Village | Change Station
CLOSE
Current Station
Personal Weather Station
Location: Ocean Township, NJ
Elevation: 125 ft
Nearby Weather Stations

Elev 125 ft 40.24 °N, 74.05 °W | Updated 6 minutes ago

Overcast
Overcast
66.4 °F
Feels Like 66.4 °F
N
8.9
Wind Variable Wind from West

Today
High -- | Low -- °F
--% Chance of Precip.
Yesterday
High -- | Low -- °F
Precip. -- in
6:52 AM 4:33 PM
Waxing Crescent, 5% visible
Pressure 29.70 in
Visibility 10.0 miles
Clouds Mostly Cloudy 1200 ft
Overcast 1700 ft
Dew Point 64 °F
Humidity 91%
Rainfall 0.92 in
Snow Depth Not available.
UV 1 out of 12
Pollen .10 out of 12
Air Quality Not available.
Flu Activity Not available.
METAR KBLM 241455Z AUTO 20008G19KT 10SM BKN012 OVC017 19/15 A2970 RMK AO1 60001 57007

More Conditions Fewer Conditions

Pressure 29.70 in
Visibility 10.0 miles
Clouds Mostly Cloudy 1200 ft
Overcast 1700 ft
Dew Point 64 °F
Humidity 91%
Rainfall 0.92 in
Snow Depth Not available.
UV 1 out of 12
Pollen .10 out of 12
Air Quality Not available.
Flu Activity Not available.
METAR KBLM 241455Z AUTO 20008G19KT 10SM BKN012 OVC017 19/15 A2970 RMK AO1 60001 57007

More Conditions Fewer Conditions

10-Day Weather Forecast

Almanac

Astronomy

Nov. 24, 2014 Rise Set
Actual Time
Civil Twilight
Nautical Twilight
Astronomical Twilight
Moon
Length of Visible Light
Length of Day
Tomorrow will be .
, % of the Moon is Illuminated

Today's Extremes

State Highs State Lows

Community

WunderPhotos

Upload Photos

1,773,360 photos uploaded!

WunderBlogs® & News

Nearby

Air Quality

  Air Quality AQ Index Pollutant
Not available.

Snow Depth

Station Depth Elevation

Earthquake Activity

City Distance Mag. Time & Date
Minimum magnitude displayed is 2.5.

Coastal Water Temperatures

Place Temperature

Nearby Weather Stations